Aviation Digital Data Service (ADDS)

Output produced by METARs form (1054 UTC 20 September 2017)
found at http://www.aviationweather.gov/adds/metars/
 
METAR text: EHGG 201025Z AUTO 25009KT 210V290 9999 FEW022 16/12 Q1018 NOSIG
Conditions at: EHGG (GRONINGEN/EELDE , NL) observed 1025 UTC 20 September 2017
Temperature: 16.0°C (61°F)
Dewpoint: 12.0°C (54°F) [RH = 77%]
Pressure (altimeter): 30.06 inches Hg (1018.0 mb)
Winds: from the WSW (250 degrees) at 10 MPH (9 knots; 4.7 m/s)
Visibility: 6 or more miles (10+ km)
Ceiling: at least 12,000 feet AGL
Clouds: few clouds at 2200 feet AGL
Weather: no significant weather observed at this time